Terminal Aerodrome Forecast
Issued by NWS

Home | Current Version | Previous Version | Text Only | Print | Product List | Glossary On
Versions: 1 2 3 4 5 6 7 8 9 10 11 12
000
FTUS45 KABQ 241100
TAFFMN
TAF
KFMN 241137Z 2412/2512 09007KT P6SM SCT250
     FM241600 VRB06KT P6SM FEW250
     FM242100 27007KT P6SM SKC
     FM250500 08006KT P6SM SKC=

USA.gov is the U.S. government's official web portal to all federal, state and local government web resources and services.